Del Rio International Airport
KDRT : now visible

Airfield :











YOU CAN JOIN US ON...

 
LOGIN :

Register | Disclaimer

   EN    FR    IT 

 









Legend :    VFR   Marginal VFR   IFR   Intensive IFR   Very Intensive IFR
Visi :
Ceiling :
>= 8 km
>= 3000ft
5 to 8 km
1000 to 3000 ft
1500m to 5 km
500 to 1000 ft
800 to 1500m
200 to 500 ft
< 800m
< 200 ft
Symbols :   Thunderstorms  Fog  Heavy snow  Heavy precipitations  Wind > 20 kt






- Airport Elevation : 1002 ft


KDRT - Del Rio International

CURRENT METAR :
  • 211953Z AUTO 08008KT 10SM BKN037 OVC049 16/01 A3019 RMK AO2 SLP215 T01560006

EXPIRED METARs :
  • 211853Z AUTO 08005KT 10SM OVC033 14/00 A3024 RMK AO2 SLP230 T01440000 $
  • 211753Z AUTO 11008KT 10SM OVC039 14/M01 A3026 RMK AO2 SLP240 T01441006 10144 20122 58013 $

TAF KDRT
Valid from the 21 at 18:00 until the 22 at 18:00 UTC


211720Z 2118/2218 11010KT P6SM OVC040
FM220900 11011KT P6SM OVC018
FM221300 12009KT P6SM OVC007
KZHU FIR / North America



MET'MAP, your aeronautical weather chart ! - Copyright ORBIFLY December 2007 - Disclaimer

ORBIFLY MET'MAP TEAM :

Programming & Development : Alexandra Zaïnal
Concept & original design : Baudouin d'Aumeries
Assistance for programming : Marc-Olivier Méhu
Technical & hardware support : Manuel Goepfert

Contact : metmap@orbifly.com




SOURCES & CREDITS :

   NOAA       Earth
Advisory